createdAt,value
2023-05-10T00:00:26.552Z,0
2023-05-10T00:00:42.621Z,0
2023-05-10T00:01:14.189Z,0
2023-05-10T00:01:35.877Z,0
2023-05-10T00:02:02.173Z,0
2023-05-10T00:02:34.277Z,0
2023-05-10T00:03:07.176Z,0
2023-05-10T00:03:35.599Z,0
2023-05-10T00:03:54.264Z,0
2023-05-10T00:04:26.102Z,0
2023-05-10T00:04:42.606Z,0
2023-05-10T00:05:14.347Z,0
2023-05-10T00:05:35.761Z,0
2023-05-10T00:06:02.090Z,0
2023-05-10T00:06:34.818Z,0
2023-05-10T00:07:06.076Z,0
2023-05-10T00:07:35.278Z,0
2023-05-10T00:07:54.106Z,0
2023-05-10T00:08:26.091Z,0
2023-05-10T00:08:42.703Z,0
2023-05-10T00:09:14.019Z,0
2023-05-10T00:09:35.595Z,0
2023-05-10T00:10:03.542Z,0
2023-05-10T00:10:35.103Z,0
2023-05-10T00:11:06.030Z,0
2023-05-10T00:11:35.181Z,0
2023-05-10T00:11:54.019Z,0
2023-05-10T00:12:26.162Z,0
2023-05-10T00:12:43.364Z,0
2023-05-10T00:13:14.049Z,0
2023-05-10T00:13:35.629Z,0
2023-05-10T00:14:02.359Z,0
2023-05-10T00:14:34.128Z,0
2023-05-10T00:15:06.577Z,0
2023-05-10T00:15:35.284Z,0
2023-05-10T00:15:55.305Z,0
2023-05-10T00:16:26.094Z,0
2023-05-10T00:16:42.616Z,0
2023-05-10T00:17:14.130Z,0
2023-05-10T00:17:35.782Z,0
2023-05-10T00:18:02.118Z,0
2023-05-10T00:18:34.891Z,0
2023-05-10T00:19:06.756Z,0
2023-05-10T00:19:35.245Z,0
2023-05-10T00:19:54.115Z,0
2023-05-10T00:20:26.380Z,0
2023-05-10T00:20:42.574Z,0
2023-05-10T00:21:14.169Z,0
2023-05-10T00:21:35.670Z,0
2023-05-10T00:22:02.162Z,0
2023-05-10T00:22:35.065Z,0
2023-05-10T00:23:06.086Z,0
2023-05-10T00:23:35.272Z,0
2023-05-10T00:23:54.096Z,0
2023-05-10T00:24:26.451Z,0
2023-05-10T00:24:58.042Z,0
2023-05-10T00:25:31.223Z,0
2023-05-10T00:26:02.069Z,0
2023-05-10T00:26:35.356Z,0
2023-05-10T00:27:06.068Z,0
2023-05-10T00:27:35.237Z,0
2023-05-10T00:27:54.089Z,0
2023-05-10T00:28:26.265Z,0
2023-05-10T00:28:58.126Z,0
2023-05-10T00:29:30.093Z,0
2023-05-10T00:30:03.960Z,0
2023-05-10T00:30:34.078Z,0
2023-05-10T00:31:06.064Z,0
2023-05-10T00:31:35.211Z,0
2023-05-10T00:31:54.890Z,0
2023-05-10T00:32:26.160Z,0
2023-05-10T00:32:42.546Z,0
2023-05-10T00:33:14.122Z,0
2023-05-10T00:33:35.759Z,0
2023-05-10T00:34:02.162Z,0
2023-05-10T00:34:34.067Z,0
2023-05-10T00:35:07.148Z,0
2023-05-10T00:35:35.192Z,0
2023-05-10T00:35:54.383Z,0
2023-05-10T00:36:26.070Z,0
2023-05-10T00:36:42.586Z,0
2023-05-10T00:37:14.084Z,0
2023-05-10T00:37:35.662Z,0
2023-05-10T00:38:02.228Z,0
2023-05-10T00:38:34.125Z,0
2023-05-10T00:39:06.039Z,0
2023-05-10T00:39:35.226Z,0
2023-05-10T00:39:54.114Z,0
2023-05-10T00:40:26.603Z,0
2023-05-10T00:40:43.813Z,0
2023-05-10T00:41:14.803Z,0
2023-05-10T00:41:35.972Z,0
2023-05-10T00:42:02.165Z,0
2023-05-10T00:42:34.186Z,0
2023-05-10T00:43:07.218Z,0
2023-05-10T00:43:35.609Z,0
2023-05-10T00:43:54.751Z,0
2023-05-10T00:44:26.834Z,0
2023-05-10T00:44:42.632Z,0
2023-05-10T00:45:15.709Z,0
2023-05-10T00:45:36.038Z,0
2023-05-10T00:46:03.876Z,0
2023-05-10T00:46:35.061Z,0
2023-05-10T00:47:06.432Z,0
2023-05-10T00:47:35.613Z,0
2023-05-10T00:47:54.296Z,0
2023-05-10T00:48:26.255Z,0
2023-05-10T00:48:42.712Z,0
2023-05-10T00:49:14.197Z,0
2023-05-10T00:49:35.776Z,0
2023-05-10T00:50:05.085Z,0
2023-05-10T00:50:36.321Z,0
2023-05-10T00:51:06.253Z,0
2023-05-10T00:51:35.290Z,0
2023-05-10T00:51:54.090Z,0
2023-05-10T00:52:26.113Z,0
2023-05-10T00:52:42.610Z,0
2023-05-10T00:53:14.139Z,0
2023-05-10T00:53:36.387Z,0
2023-05-10T00:54:02.112Z,0
2023-05-10T00:54:34.136Z,0
2023-05-10T00:55:06.410Z,0
2023-05-10T00:55:35.528Z,0
2023-05-10T00:55:54.348Z,0
2023-05-10T00:56:26.109Z,0
2023-05-10T00:56:43.329Z,0
2023-05-10T00:57:14.133Z,0
2023-05-10T00:57:35.761Z,0
2023-05-10T00:58:02.091Z,0
2023-05-10T00:58:34.137Z,0
2023-05-10T00:59:06.111Z,0
2023-05-10T00:59:35.316Z,0
2023-05-10T00:59:54.948Z,0
2023-05-10T01:00:26.632Z,0
2023-05-10T01:00:42.622Z,0
2023-05-10T01:01:14.127Z,0
2023-05-10T01:01:35.825Z,0
2023-05-10T01:02:02.226Z,0
2023-05-10T01:02:34.222Z,0
2023-05-10T01:03:07.062Z,0
2023-05-10T01:03:35.500Z,0
2023-05-10T01:03:54.101Z,0
2023-05-10T01:04:26.073Z,0
2023-05-10T01:04:42.673Z,0
2023-05-10T01:05:14.473Z,0
2023-05-10T01:05:35.804Z,0
2023-05-10T01:06:02.084Z,0
2023-05-10T01:06:34.109Z,0
2023-05-10T01:07:06.080Z,0
2023-05-10T01:07:35.317Z,0
2023-05-10T01:07:54.153Z,0
2023-05-10T01:08:26.097Z,0
2023-05-10T01:08:42.621Z,0
2023-05-10T01:09:14.138Z,0
2023-05-10T01:09:35.830Z,0
2023-05-10T01:10:03.590Z,0
2023-05-10T01:10:34.161Z,0
2023-05-10T01:11:06.079Z,0
2023-05-10T01:11:35.770Z,0
2023-05-10T01:11:54.129Z,0
2023-05-10T01:12:26.137Z,0
2023-05-10T01:12:43.500Z,0
2023-05-10T01:13:14.132Z,0
2023-05-10T01:13:36.006Z,0
2023-05-10T01:14:02.127Z,0
2023-05-10T01:14:34.072Z,0
2023-05-10T01:15:06.596Z,0
2023-05-10T01:15:35.814Z,0
2023-05-10T01:15:55.277Z,0
2023-05-10T01:16:26.139Z,0
2023-05-10T01:16:42.647Z,0
2023-05-10T01:17:14.067Z,0
2023-05-10T01:17:35.808Z,0
2023-05-10T01:18:02.133Z,0
2023-05-10T01:18:34.121Z,0
2023-05-10T01:19:06.752Z,0
2023-05-10T01:19:35.258Z,0
2023-05-10T01:19:53.984Z,0
2023-05-10T01:20:26.382Z,0
2023-05-10T01:20:42.525Z,0
2023-05-10T01:21:14.037Z,0
2023-05-10T01:21:35.732Z,0
2023-05-10T01:22:02.062Z,0
2023-05-10T01:22:34.003Z,0
2023-05-10T01:23:06.027Z,0
2023-05-10T01:23:35.249Z,0
2023-05-10T01:23:54.002Z,0
2023-05-10T01:24:26.075Z,0
2023-05-10T01:24:42.514Z,0
2023-05-10T01:25:14.271Z,0
2023-05-10T01:25:35.730Z,0
2023-05-10T01:26:02.017Z,0
2023-05-10T01:26:34.425Z,0
2023-05-10T01:27:06.037Z,0
2023-05-10T01:27:35.202Z,0
2023-05-10T01:27:53.992Z,0
2023-05-10T01:28:26.055Z,0
2023-05-10T01:28:43.234Z,0
2023-05-10T01:29:14.053Z,0
2023-05-10T01:29:35.799Z,0
2023-05-10T01:30:34.108Z,0
2023-05-10T01:31:06.119Z,0
2023-05-10T01:31:35.457Z,0
2023-05-10T01:31:54.936Z,0
2023-05-10T01:32:26.311Z,0
2023-05-10T01:32:42.535Z,0
2023-05-10T01:33:14.081Z,0
2023-05-10T01:33:35.683Z,0
2023-05-10T01:34:02.024Z,0
2023-05-10T01:34:34.423Z,0
2023-05-10T01:35:07.069Z,0
2023-05-10T01:35:35.176Z,0
2023-05-10T01:35:54.212Z,0
2023-05-10T01:36:25.993Z,0
2023-05-10T01:36:42.523Z,0
2023-05-10T01:37:13.995Z,0
2023-05-10T01:37:35.700Z,0
2023-05-10T01:38:01.963Z,0
2023-05-10T01:38:33.953Z,0
2023-05-10T01:39:05.981Z,0
2023-05-10T01:39:35.169Z,0
2023-05-10T01:39:53.965Z,0
2023-05-10T01:40:26.307Z,0
2023-05-10T01:40:42.501Z,0
2023-05-10T01:41:13.936Z,0
2023-05-10T01:41:35.777Z,0
2023-05-10T01:42:02.022Z,0
2023-05-10T01:42:33.976Z,0
2023-05-10T01:43:06.033Z,0
2023-05-10T01:43:35.184Z,0
2023-05-10T01:43:53.950Z,0
2023-05-10T01:44:25.986Z,0
2023-05-10T01:44:43.242Z,0
2023-05-10T01:45:14.526Z,0
2023-05-10T01:45:35.754Z,0
2023-05-10T01:46:03.091Z,0
2023-05-10T01:46:33.960Z,0
2023-05-10T01:47:05.947Z,0
2023-05-10T01:47:35.196Z,0
2023-05-10T01:47:54.754Z,0
2023-05-10T01:48:26.032Z,0
2023-05-10T01:48:42.459Z,0
2023-05-10T01:49:13.922Z,0
2023-05-10T01:49:35.840Z,0
2023-05-10T01:50:03.364Z,0
2023-05-10T01:50:34.046Z,0
2023-05-10T01:51:06.796Z,0
2023-05-10T01:51:35.205Z,0
2023-05-10T01:51:53.908Z,0
2023-05-10T01:52:25.965Z,0
2023-05-10T01:52:42.447Z,0
2023-05-10T01:53:14.039Z,0
2023-05-10T01:53:35.743Z,0
2023-05-10T01:54:01.985Z,0
2023-05-10T01:54:33.926Z,0
2023-05-10T01:55:06.209Z,0
2023-05-10T01:55:35.134Z,0
2023-05-10T01:55:54.211Z,0
2023-05-10T01:56:25.984Z,0
2023-05-10T01:56:42.471Z,0
2023-05-10T01:57:13.947Z,0
2023-05-10T01:57:35.891Z,0
2023-05-10T01:58:01.965Z,0
2023-05-10T01:58:33.986Z,0
2023-05-10T01:59:05.978Z,0
2023-05-10T01:59:35.678Z,0
2023-05-10T01:59:53.939Z,0
2023-05-10T02:00:26.455Z,0
2023-05-10T02:00:45.016Z,0
2023-05-10T02:01:14.069Z,0
2023-05-10T02:01:35.741Z,0
2023-05-10T02:02:02.032Z,0
2023-05-10T02:02:34.357Z,0
2023-05-10T02:03:06.046Z,0
2023-05-10T02:03:35.269Z,0
2023-05-10T02:03:54.744Z,0
2023-05-10T02:04:26.058Z,0
2023-05-10T02:04:42.552Z,0
2023-05-10T02:05:14.241Z,0
2023-05-10T02:05:35.781Z,0
2023-05-10T02:06:02.008Z,0
2023-05-10T02:06:33.920Z,0
2023-05-10T02:07:06.672Z,0
2023-05-10T02:07:35.103Z,0
2023-05-10T02:07:54.263Z,0
2023-05-10T02:08:25.962Z,0
2023-05-10T02:08:42.422Z,0
2023-05-10T02:09:13.981Z,0
2023-05-10T02:09:35.834Z,0
2023-05-10T02:10:03.365Z,0
2023-05-10T02:10:33.941Z,0
2023-05-10T02:11:05.965Z,0
2023-05-10T02:11:35.154Z,0
2023-05-10T02:11:53.936Z,0
2023-05-10T02:12:26.006Z,0
2023-05-10T02:12:42.558Z,0
2023-05-10T02:13:14.089Z,0
2023-05-10T02:13:35.753Z,0
2023-05-10T02:14:02.016Z,0
2023-05-10T02:14:33.969Z,0
2023-05-10T02:15:06.402Z,0
2023-05-10T02:15:35.622Z,0
2023-05-10T02:15:54.237Z,0
2023-05-10T02:16:25.974Z,0
2023-05-10T02:16:43.319Z,0
2023-05-10T02:17:13.970Z,0
2023-05-10T02:17:35.831Z,0
2023-05-10T02:18:02.017Z,0
2023-05-10T02:18:33.958Z,0
2023-05-10T02:19:05.924Z,0
2023-05-10T02:19:35.187Z,0
2023-05-10T02:19:54.806Z,0
2023-05-10T02:20:26.243Z,0
2023-05-10T02:20:42.440Z,0
2023-05-10T02:21:14.068Z,0
2023-05-10T02:21:35.841Z,0
2023-05-10T02:22:01.968Z,0
2023-05-10T02:22:33.948Z,0
2023-05-10T02:23:06.746Z,0
2023-05-10T02:23:35.138Z,0
2023-05-10T02:23:53.932Z,0
2023-05-10T02:24:25.931Z,0
2023-05-10T02:24:42.417Z,0
2023-05-10T02:25:14.262Z,0
2023-05-10T02:25:35.786Z,0
2023-05-10T02:26:01.967Z,0
2023-05-10T02:26:33.933Z,0
2023-05-10T02:27:05.964Z,0
2023-05-10T02:27:35.160Z,0
2023-05-10T02:27:53.929Z,0
2023-05-10T02:28:25.959Z,0
2023-05-10T02:28:42.775Z,0
2023-05-10T02:29:13.925Z,0
2023-05-10T02:29:35.815Z,0
2023-05-10T02:30:03.711Z,0
2023-05-10T02:30:33.967Z,0
2023-05-10T02:31:05.983Z,0
2023-05-10T02:31:35.297Z,0
2023-05-10T02:31:53.955Z,0
2023-05-10T02:32:25.960Z,0
2023-05-10T02:32:43.186Z,0
2023-05-10T02:33:13.973Z,0
2023-05-10T02:33:35.829Z,0
2023-05-10T02:34:02.139Z,0
2023-05-10T02:34:33.923Z,0
2023-05-10T02:35:06.186Z,0
2023-05-10T02:35:35.122Z,0
2023-05-10T02:35:55.078Z,0
2023-05-10T02:36:25.953Z,0
2023-05-10T02:36:42.414Z,0
2023-05-10T02:37:14.054Z,0
2023-05-10T02:37:35.851Z,0
2023-05-10T02:38:01.976Z,0
2023-05-10T02:38:33.921Z,0
2023-05-10T02:39:07.171Z,0
2023-05-10T02:39:35.138Z,0
2023-05-10T02:39:53.904Z,0
2023-05-10T02:40:28.756Z,0
2023-05-10T02:40:42.432Z,0
2023-05-10T02:41:13.986Z,0
2023-05-10T02:41:35.823Z,0
2023-05-10T02:42:01.929Z,0
2023-05-10T02:42:33.913Z,0
2023-05-10T02:43:05.901Z,0
2023-05-10T02:43:35.093Z,0
2023-05-10T02:43:53.948Z,0
2023-05-10T02:44:25.968Z,0
2023-05-10T02:44:42.463Z,0
2023-05-10T02:45:14.470Z,0
2023-05-10T02:45:35.822Z,0
2023-05-10T02:46:03.227Z,0
2023-05-10T02:46:34.041Z,0
2023-05-10T02:47:05.918Z,0
2023-05-10T02:47:34.862Z,0
2023-05-10T02:47:53.916Z,0
2023-05-10T02:48:25.928Z,0
2023-05-10T02:48:43.251Z,0
2023-05-10T02:49:13.934Z,0
2023-05-10T02:49:35.861Z,0
2023-05-10T02:50:03.393Z,0
2023-05-10T02:50:33.927Z,0
2023-05-10T02:51:06.000Z,0
2023-05-10T02:51:35.160Z,0
2023-05-10T02:51:54.678Z,0
2023-05-10T02:52:25.961Z,0
2023-05-10T02:52:42.471Z,0
2023-05-10T02:53:13.932Z,0
2023-05-10T02:53:35.880Z,0
2023-05-10T02:54:01.975Z,0
2023-05-10T02:54:33.958Z,0
2023-05-10T02:55:06.952Z,0
2023-05-10T02:55:35.108Z,0
2023-05-10T02:55:54.162Z,0
2023-05-10T02:56:25.939Z,0
2023-05-10T02:56:42.408Z,0
2023-05-10T02:57:13.962Z,0
2023-05-10T02:57:35.918Z,0
2023-05-10T02:58:01.920Z,0
2023-05-10T02:58:33.906Z,0
2023-05-10T02:59:05.905Z,0
2023-05-10T02:59:35.094Z,0
2023-05-10T02:59:53.926Z,0
2023-05-10T03:00:26.485Z,0
2023-05-10T03:00:42.452Z,0
2023-05-10T03:01:13.945Z,0
2023-05-10T03:01:36.102Z,0
2023-05-10T03:02:02.018Z,0
2023-05-10T03:02:34.076Z,0
2023-05-10T03:03:06.016Z,0
2023-05-10T03:03:34.667Z,0
2023-05-10T03:03:53.911Z,0
2023-05-10T03:04:26.004Z,0
2023-05-10T03:04:43.509Z,0
2023-05-10T03:05:14.268Z,0
2023-05-10T03:05:35.887Z,0
2023-05-10T03:06:01.965Z,0
2023-05-10T03:06:34.013Z,0
2023-05-10T03:07:05.903Z,0
2023-05-10T03:07:34.614Z,0
2023-05-10T03:07:55.847Z,0
2023-05-10T03:08:25.962Z,0
2023-05-10T03:08:42.408Z,0
2023-05-10T03:09:13.934Z,0
2023-05-10T03:09:35.975Z,0
2023-05-10T03:10:03.379Z,0
2023-05-10T03:10:33.952Z,0
2023-05-10T03:11:06.831Z,0
2023-05-10T03:11:34.641Z,0
2023-05-10T03:11:53.888Z,0
2023-05-10T03:12:25.949Z,0
2023-05-10T03:12:42.443Z,0
2023-05-10T03:13:14.099Z,0
2023-05-10T03:13:35.958Z,0
2023-05-10T03:14:01.913Z,0
2023-05-10T03:14:33.908Z,0
2023-05-10T03:15:06.454Z,0
2023-05-10T03:15:35.152Z,0
2023-05-10T03:15:54.346Z,0
2023-05-10T03:16:26.143Z,0
2023-05-10T03:16:44.763Z,0
2023-05-10T03:17:13.911Z,0
2023-05-10T03:17:35.999Z,0
2023-05-10T03:18:01.961Z,0
2023-05-10T03:18:33.943Z,0
2023-05-10T03:19:05.926Z,0
2023-05-10T03:19:34.606Z,0
2023-05-10T03:19:53.933Z,0
2023-05-10T03:20:27.272Z,0
2023-05-10T03:20:57.930Z,0
2023-05-10T03:21:29.911Z,0
2023-05-10T03:22:01.922Z,0
2023-05-10T03:22:33.902Z,0
2023-05-10T03:23:05.946Z,0
2023-05-10T03:23:35.923Z,0
2023-05-10T03:23:54.663Z,0
2023-05-10T03:24:25.937Z,0
2023-05-10T03:24:42.423Z,0
2023-05-10T03:25:14.205Z,0
2023-05-10T03:25:35.924Z,0
2023-05-10T03:26:01.939Z,0
2023-05-10T03:26:33.967Z,0
2023-05-10T03:27:06.740Z,0
2023-05-10T03:27:34.598Z,0
2023-05-10T03:27:53.925Z,0
2023-05-10T03:28:26.030Z,0
2023-05-10T03:28:42.406Z,0
2023-05-10T03:29:13.941Z,0
2023-05-10T03:29:36.008Z,0
2023-05-10T03:30:03.699Z,0
2023-05-10T03:30:35.199Z,0
2023-05-10T03:31:05.981Z,0
2023-05-10T03:31:34.640Z,0
2023-05-10T03:31:54.029Z,0
2023-05-10T03:32:25.993Z,0
2023-05-10T03:32:42.485Z,0
2023-05-10T03:33:13.889Z,0
2023-05-10T03:33:36.062Z,0
2023-05-10T03:34:01.912Z,0
2023-05-10T03:34:33.944Z,0
2023-05-10T03:35:06.309Z,0
2023-05-10T03:35:35.989Z,0
2023-05-10T03:35:54.136Z,0
2023-05-10T03:36:25.957Z,0
2023-05-10T03:36:43.104Z,0
2023-05-10T03:37:13.940Z,0
2023-05-10T03:37:36.003Z,0
2023-05-10T03:38:01.912Z,0
2023-05-10T03:38:33.895Z,0
2023-05-10T03:39:06.007Z,0
2023-05-10T03:39:34.593Z,0
2023-05-10T03:39:55.646Z,0
2023-05-10T03:40:26.242Z,0
2023-05-10T03:40:42.374Z,0
2023-05-10T03:41:14.217Z,0
2023-05-10T03:41:36.098Z,0
2023-05-10T03:42:02.042Z,0
2023-05-10T03:42:33.904Z,0
2023-05-10T03:43:06.733Z,0
2023-05-10T03:43:34.630Z,0
2023-05-10T03:43:53.923Z,0
2023-05-10T03:44:25.937Z,0
2023-05-10T03:44:42.414Z,0
2023-05-10T03:45:14.489Z,0
2023-05-10T03:45:36.063Z,0
2023-05-10T03:46:03.154Z,0
2023-05-10T03:46:33.941Z,0
2023-05-10T03:47:06.027Z,0
2023-05-10T03:47:34.609Z,0
2023-05-10T03:47:53.946Z,0
2023-05-10T03:48:25.966Z,0
2023-05-10T03:48:42.627Z,0
2023-05-10T03:49:13.902Z,0
2023-05-10T03:49:35.999Z,0
2023-05-10T03:50:03.363Z,0
2023-05-10T03:50:34.083Z,0
2023-05-10T03:51:06.050Z,0
2023-05-10T03:51:35.733Z,0
2023-05-10T03:51:53.895Z,0
2023-05-10T03:52:25.886Z,0
2023-05-10T03:52:43.212Z,0
2023-05-10T03:53:13.984Z,0
2023-05-10T03:53:36.148Z,0
2023-05-10T03:54:01.903Z,0
2023-05-10T03:54:34.224Z,0
2023-05-10T03:55:06.598Z,0
2023-05-10T03:55:34.742Z,0
2023-05-10T03:55:55.248Z,0
2023-05-10T03:56:26.040Z,.16
2023-05-10T03:56:42.542Z,.16
2023-05-10T03:57:14.017Z,0
2023-05-10T03:57:36.180Z,0
2023-05-10T03:58:02.007Z,0
2023-05-10T03:58:34.038Z,0
2023-05-10T03:59:07.162Z,0
2023-05-10T03:59:34.728Z,.16
2023-05-10T03:59:54.006Z,.16
2023-05-10T04:00:26.586Z,0
2023-05-10T04:00:42.609Z,0
2023-05-10T04:01:14.074Z,0
2023-05-10T04:01:36.290Z,0
2023-05-10T04:02:02.023Z,0
2023-05-10T04:02:33.533Z,.16
2023-05-10T04:03:05.531Z,0
2023-05-10T04:03:34.231Z,0
2023-05-10T04:03:53.615Z,.16
2023-05-10T04:04:25.527Z,.16
2023-05-10T04:04:42.047Z,.16
2023-05-10T04:05:13.736Z,0
2023-05-10T04:05:35.338Z,0
2023-05-10T04:06:01.544Z,.16
2023-05-10T04:06:33.499Z,.32
2023-05-10T04:07:06.505Z,.32
2023-05-10T04:07:35.053Z,.32
2023-05-10T04:07:53.988Z,.32
2023-05-10T04:08:26.021Z,.32
2023-05-10T04:08:44.268Z,.32
2023-05-10T04:09:14.138Z,.48
2023-05-10T04:09:35.698Z,.88
2023-05-10T04:10:04.266Z,1.12
2023-05-10T04:10:33.997Z,1.12
2023-05-10T04:11:06.050Z,1.12
2023-05-10T04:11:34.884Z,1.28
2023-05-10T04:11:54.977Z,1.61
2023-05-10T04:12:26.039Z,1.28
2023-05-10T04:12:42.547Z,1.12
2023-05-10T04:13:14.032Z,1.12
2023-05-10T04:13:35.655Z,.88
2023-05-10T04:14:02.520Z,1.12
2023-05-10T04:14:34.551Z,1.12
2023-05-10T04:15:07.550Z,1.12
2023-05-10T04:15:34.744Z,1.45
2023-05-10T04:15:54.254Z,1.45
2023-05-10T04:16:26.109Z,1.45
2023-05-10T04:16:42.561Z,1.45
2023-05-10T04:17:14.101Z,1.12
2023-05-10T04:17:35.699Z,1.12
2023-05-10T04:18:02.519Z,.72
2023-05-10T04:18:34.422Z,.72
2023-05-10T04:19:05.981Z,.32
2023-05-10T04:19:34.672Z,.72
2023-05-10T04:19:54.063Z,1.12
2023-05-10T04:20:26.491Z,1.12
2023-05-10T04:20:42.631Z,1.12
2023-05-10T04:21:13.990Z,.72
2023-05-10T04:21:35.933Z,.72
2023-05-10T04:22:02.480Z,.72
2023-05-10T04:22:34.646Z,1.12
2023-05-10T04:23:06.006Z,.88
2023-05-10T04:23:34.748Z,.48
2023-05-10T04:23:54.006Z,.48
2023-05-10T04:24:25.994Z,.48
2023-05-10T04:24:43.223Z,.32
2023-05-10T04:25:14.395Z,.48
2023-05-10T04:25:35.656Z,.88
2023-05-10T04:26:02.489Z,1.12
2023-05-10T04:26:34.036Z,1.28
2023-05-10T04:27:05.999Z,1.44
2023-05-10T04:27:34.700Z,1.28
2023-05-10T04:27:54.728Z,1.28
2023-05-10T04:28:26.063Z,1.28
2023-05-10T04:28:42.519Z,1.28
2023-05-10T04:29:14.046Z,1.12
2023-05-10T04:29:35.725Z,1.12
2023-05-10T04:30:04.384Z,1.12
2023-05-10T04:30:34.092Z,1.28
2023-05-10T04:31:06.870Z,1.44
2023-05-10T04:31:34.670Z,1.44
2023-05-10T04:31:54.036Z,1.61
2023-05-10T04:32:25.992Z,1.61
2023-05-10T04:32:42.493Z,1.44
2023-05-10T04:33:14.169Z,1.44
2023-05-10T04:33:35.689Z,1.44
2023-05-10T04:34:02.476Z,1.44
2023-05-10T04:34:34.009Z,1.44
2023-05-10T04:35:06.360Z,1.44
2023-05-10T04:35:34.696Z,1.28
2023-05-10T04:35:54.241Z,.72
2023-05-10T04:36:26.069Z,.72
2023-05-10T04:36:42.551Z,.72
2023-05-10T04:37:14.012Z,.16
2023-05-10T04:37:35.675Z,0
2023-05-10T04:38:02.495Z,0
2023-05-10T04:38:34.000Z,0
2023-05-10T04:39:06.014Z,0
2023-05-10T04:39:34.710Z,0
2023-05-10T04:39:53.992Z,0
2023-05-10T04:40:26.307Z,0
2023-05-10T04:40:43.291Z,0
2023-05-10T04:41:14.060Z,0
2023-05-10T04:41:35.655Z,0
2023-05-10T04:42:02.428Z,0
2023-05-10T04:42:34.266Z,0
2023-05-10T04:43:05.960Z,0
2023-05-10T04:43:34.706Z,0
2023-05-10T04:43:54.014Z,0
2023-05-10T04:44:26.000Z,0
2023-05-10T04:44:42.749Z,0
2023-05-10T04:45:14.533Z,0
2023-05-10T04:45:36.113Z,0
2023-05-10T04:46:03.729Z,0
2023-05-10T04:46:34.014Z,0
2023-05-10T04:47:06.038Z,0
2023-05-10T04:47:34.938Z,0
2023-05-10T04:47:54.027Z,0
2023-05-10T04:48:25.960Z,0
2023-05-10T04:48:42.521Z,0
2023-05-10T04:49:14.056Z,0
2023-05-10T04:49:35.678Z,0
2023-05-10T04:50:04.000Z,0
2023-05-10T04:50:35.333Z,0
2023-05-10T04:51:05.995Z,0
2023-05-10T04:51:34.666Z,0
2023-05-10T04:51:54.051Z,0
2023-05-10T04:52:26.027Z,0
2023-05-10T04:52:42.538Z,0
2023-05-10T04:53:15.851Z,0
2023-05-10T04:53:36.757Z,0
2023-05-10T04:54:06.492Z,0
2023-05-10T04:54:33.992Z,0
2023-05-10T04:55:06.406Z,0
2023-05-10T04:55:34.657Z,0
2023-05-10T04:55:54.217Z,0
2023-05-10T04:56:25.971Z,0
2023-05-10T04:56:44.244Z,0
2023-05-10T04:57:13.952Z,0
2023-05-10T04:57:35.812Z,.16
2023-05-10T04:58:02.505Z,.16
2023-05-10T04:58:33.952Z,.16
2023-05-10T04:59:06.011Z,.16
2023-05-10T04:59:34.638Z,.16
2023-05-10T04:59:54.721Z,0
2023-05-10T05:00:26.562Z,0
2023-05-10T05:00:42.543Z,0
2023-05-10T05:01:14.010Z,0
2023-05-10T05:01:36.146Z,0
2023-05-10T05:02:02.922Z,0
2023-05-10T05:02:34.168Z,0
2023-05-10T05:03:09.020Z,0
2023-05-10T05:03:35.130Z,0
2023-05-10T05:03:57.939Z,0
2023-05-10T05:04:26.018Z,0
2023-05-10T05:04:42.495Z,.16
2023-05-10T05:05:14.354Z,.16
2023-05-10T05:05:35.823Z,.16
2023-05-10T05:06:02.359Z,0
2023-05-10T05:06:34.010Z,0
2023-05-10T05:07:05.977Z,.16
2023-05-10T05:07:34.660Z,.16
2023-05-10T05:07:53.962Z,.16
2023-05-10T05:08:26.049Z,.32
2023-05-10T05:08:42.477Z,.32
2023-05-10T05:09:13.994Z,.32
2023-05-10T05:09:36.106Z,.32
2023-05-10T05:10:04.064Z,.32
2023-05-10T05:10:34.074Z,.32
2023-05-10T05:11:06.142Z,.32
2023-05-10T05:11:34.655Z,.32
2023-05-10T05:11:53.992Z,.32
2023-05-10T05:12:26.011Z,.32
2023-05-10T05:12:43.266Z,.16
2023-05-10T05:13:14.068Z,0
2023-05-10T05:13:35.693Z,0
2023-05-10T05:14:02.415Z,0
2023-05-10T05:14:34.006Z,0
2023-05-10T05:15:09.050Z,0
2023-05-10T05:15:34.672Z,0
2023-05-10T05:15:55.059Z,0
2023-05-10T05:16:26.037Z,0
2023-05-10T05:16:42.525Z,0
2023-05-10T05:17:13.980Z,0
2023-05-10T05:17:35.736Z,0
2023-05-10T05:18:02.478Z,0
2023-05-10T05:18:34.007Z,0
2023-05-10T05:19:06.725Z,0
2023-05-10T05:19:34.699Z,0
2023-05-10T05:19:53.966Z,0
2023-05-10T05:20:26.353Z,0
2023-05-10T05:20:42.527Z,0
2023-05-10T05:21:14.094Z,0
2023-05-10T05:21:35.640Z,0
2023-05-10T05:22:02.415Z,0
2023-05-10T05:22:33.956Z,0
2023-05-10T05:23:05.936Z,0
2023-05-10T05:23:34.650Z,0
2023-05-10T05:23:53.994Z,0
2023-05-10T05:24:26.060Z,0
2023-05-10T05:24:42.807Z,0
2023-05-10T05:25:14.260Z,0
2023-05-10T05:25:35.670Z,0
2023-05-10T05:26:02.507Z,0
2023-05-10T05:26:33.972Z,0
2023-05-10T05:27:06.072Z,0
2023-05-10T05:27:34.675Z,0
2023-05-10T05:27:53.989Z,0
2023-05-10T05:28:25.995Z,0
2023-05-10T05:28:43.584Z,0
2023-05-10T05:29:13.966Z,0
2023-05-10T05:29:35.686Z,0
2023-05-10T05:30:04.289Z,0
2023-05-10T05:30:34.052Z,0
2023-05-10T05:31:05.954Z,0
2023-05-10T05:31:34.754Z,0
2023-05-10T05:31:55.531Z,0
2023-05-10T05:32:26.032Z,0
2023-05-10T05:32:42.580Z,0
2023-05-10T05:33:14.003Z,0
2023-05-10T05:33:35.666Z,0
2023-05-10T05:34:02.412Z,0
2023-05-10T05:34:34.017Z,0
2023-05-10T05:35:07.311Z,0
2023-05-10T05:35:34.963Z,0
2023-05-10T05:35:54.193Z,0
2023-05-10T05:36:25.991Z,0
2023-05-10T05:36:42.427Z,0
2023-05-10T05:37:13.993Z,0
2023-05-10T05:37:35.684Z,0
2023-05-10T05:38:02.477Z,0
2023-05-10T05:38:33.951Z,0
2023-05-10T05:39:05.977Z,0
2023-05-10T05:39:34.668Z,0
2023-05-10T05:39:53.977Z,0
2023-05-10T05:40:26.300Z,0
2023-05-10T05:40:42.481Z,0
2023-05-10T05:41:13.961Z,0
2023-05-10T05:41:35.656Z,0
2023-05-10T05:42:02.448Z,0
2023-05-10T05:42:34.007Z,0
2023-05-10T05:43:06.001Z,0
2023-05-10T05:43:37.399Z,0
2023-05-10T05:43:53.986Z,0
2023-05-10T05:44:25.970Z,0
2023-05-10T05:44:43.170Z,0
2023-05-10T05:45:14.926Z,0
2023-05-10T05:45:35.701Z,0
2023-05-10T05:46:03.685Z,0
2023-05-10T05:46:33.926Z,0
2023-05-10T05:47:05.952Z,0
2023-05-10T05:47:34.797Z,0
2023-05-10T05:47:54.052Z,0
2023-05-10T05:48:26.030Z,0
2023-05-10T05:48:42.466Z,0
2023-05-10T05:49:13.935Z,0
2023-05-10T05:49:35.650Z,0
2023-05-10T05:50:03.942Z,0
2023-05-10T05:50:33.932Z,0
2023-05-10T05:51:07.379Z,0
2023-05-10T05:51:35.136Z,0
2023-05-10T05:51:53.917Z,0
2023-05-10T05:52:25.956Z,0
2023-05-10T05:52:42.479Z,0
2023-05-10T05:53:13.970Z,0
2023-05-10T05:53:35.656Z,0
2023-05-10T05:54:02.037Z,0
2023-05-10T05:54:33.959Z,0
2023-05-10T05:55:06.400Z,0
2023-05-10T05:55:34.634Z,0
2023-05-10T05:55:54.218Z,0
2023-05-10T05:56:26.043Z,0
2023-05-10T05:56:42.454Z,0
2023-05-10T05:57:13.949Z,0
2023-05-10T05:57:35.631Z,0
2023-05-10T05:58:02.493Z,0
2023-05-10T05:58:34.008Z,0
2023-05-10T05:59:05.963Z,0
2023-05-10T05:59:34.715Z,0
2023-05-10T05:59:53.965Z,0
2023-05-10T06:00:26.534Z,.16
2023-05-10T06:00:43.286Z,0
2023-05-10T06:01:13.971Z,0
2023-05-10T06:01:35.683Z,0
2023-05-10T06:02:02.072Z,0
2023-05-10T06:02:34.303Z,0
2023-05-10T06:03:06.070Z,0
2023-05-10T06:03:35.217Z,0
2023-05-10T06:03:54.026Z,0
2023-05-10T06:04:26.061Z,0
2023-05-10T06:04:44.671Z,0
2023-05-10T06:05:14.461Z,0
2023-05-10T06:05:35.683Z,0
2023-05-10T06:06:02.713Z,0
2023-05-10T06:06:34.028Z,0
2023-05-10T06:07:06.934Z,0
2023-05-10T06:07:34.651Z,0
2023-05-10T06:07:53.941Z,0
2023-05-10T06:08:25.984Z,0
2023-05-10T06:08:42.568Z,0
2023-05-10T06:09:13.983Z,0
2023-05-10T06:09:35.706Z,0
2023-05-10T06:10:04.016Z,0
2023-05-10T06:10:33.910Z,0
2023-05-10T06:11:06.006Z,0
2023-05-10T06:11:34.644Z,0
2023-05-10T06:11:53.939Z,0
2023-05-10T06:12:25.953Z,0
2023-05-10T06:12:42.496Z,0
2023-05-10T06:13:14.027Z,0
2023-05-10T06:13:35.679Z,0
2023-05-10T06:14:02.009Z,0
2023-05-10T06:14:34.091Z,0
2023-05-10T06:15:06.603Z,0
2023-05-10T06:15:34.688Z,0
2023-05-10T06:15:54.148Z,0
2023-05-10T06:16:26.289Z,0
2023-05-10T06:16:58.074Z,0
2023-05-10T06:17:30.000Z,0
2023-05-10T06:18:02.146Z,0
2023-05-10T06:18:33.924Z,0
2023-05-10T06:19:05.965Z,0
2023-05-10T06:19:34.697Z,0
2023-05-10T06:19:54.785Z,.16
2023-05-10T06:20:26.227Z,.16
2023-05-10T06:20:42.460Z,.32
2023-05-10T06:21:13.980Z,.32
2023-05-10T06:21:35.640Z,.16
2023-05-10T06:22:02.000Z,.32
2023-05-10T06:22:33.986Z,.16
2023-05-10T06:23:07.625Z,.32
2023-05-10T06:23:34.629Z,.32
2023-05-10T06:23:53.942Z,.16
2023-05-10T06:24:25.954Z,.16
2023-05-10T06:24:42.439Z,.48
2023-05-10T06:25:14.539Z,.48
2023-05-10T06:25:35.957Z,.48
2023-05-10T06:26:02.016Z,.48
2023-05-10T06:26:34.020Z,.48
2023-05-10T06:27:05.946Z,.16
2023-05-10T06:27:34.692Z,.16
2023-05-10T06:27:54.021Z,0
2023-05-10T06:28:25.975Z,.16
2023-05-10T06:28:42.438Z,.16
2023-05-10T06:29:13.986Z,.32
2023-05-10T06:29:35.673Z,.16
2023-05-10T06:30:12.466Z,.32
2023-05-10T06:30:34.360Z,.32
2023-05-10T06:31:06.021Z,.32
2023-05-10T06:31:34.742Z,.32
2023-05-10T06:31:53.998Z,.16